sensor_id;sensor_type;location;lat;lon;timestamp;P1;durP1;ratioP1;P2;durP2;ratioP2
9854;SDS011;4966;48.112;9.282;2024-01-30T00:00:03;18.67;;;7.32;;
9854;SDS011;4966;48.112;9.282;2024-01-30T00:02:30;18.83;;;7.93;;
9854;SDS011;4966;48.112;9.282;2024-01-30T00:04:55;19.48;;;7.72;;
9854;SDS011;4966;48.112;9.282;2024-01-30T00:07:21;16.98;;;7.40;;
9854;SDS011;4966;48.112;9.282;2024-01-30T00:09:46;16.38;;;7.00;;
9854;SDS011;4966;48.112;9.282;2024-01-30T00:12:13;17.67;;;6.88;;
9854;SDS011;4966;48.112;9.282;2024-01-30T00:14:41;18.27;;;7.10;;
9854;SDS011;4966;48.112;9.282;2024-01-30T00:17:06;16.50;;;6.35;;
9854;SDS011;4966;48.112;9.282;2024-01-30T00:19:32;17.15;;;7.13;;
9854;SDS011;4966;48.112;9.282;2024-01-30T00:21:57;22.90;;;7.60;;
9854;SDS011;4966;48.112;9.282;2024-01-30T00:24:23;16.80;;;6.57;;
9854;SDS011;4966;48.112;9.282;2024-01-30T00:26:48;15.48;;;7.03;;
9854;SDS011;4966;48.112;9.282;2024-01-30T00:29:13;14.50;;;6.72;;
9854;SDS011;4966;48.112;9.282;2024-01-30T00:31:44;19.45;;;7.55;;
9854;SDS011;4966;48.112;9.282;2024-01-30T00:34:09;16.67;;;7.30;;
9854;SDS011;4966;48.112;9.282;2024-01-30T00:36:35;17.20;;;7.00;;
9854;SDS011;4966;48.112;9.282;2024-01-30T00:39:00;13.93;;;6.82;;
9854;SDS011;4966;48.112;9.282;2024-01-30T00:41:26;17.45;;;6.88;;
9854;SDS011;4966;48.112;9.282;2024-01-30T00:43:51;20.52;;;7.32;;
9854;SDS011;4966;48.112;9.282;2024-01-30T00:46:17;20.63;;;7.25;;
9854;SDS011;4966;48.112;9.282;2024-01-30T00:48:42;18.23;;;7.53;;
9854;SDS011;4966;48.112;9.282;2024-01-30T00:51:07;18.52;;;6.72;;
9854;SDS011;4966;48.112;9.282;2024-01-30T00:53:33;15.65;;;7.00;;
9854;SDS011;4966;48.112;9.282;2024-01-30T00:55:58;21.08;;;8.05;;
9854;SDS011;4966;48.112;9.282;2024-01-30T00:58:24;17.58;;;7.65;;
9854;SDS011;4966;48.112;9.282;2024-01-30T01:00:49;20.20;;;8.18;;
9854;SDS011;4966;48.112;9.282;2024-01-30T01:03:15;19.92;;;7.15;;
9854;SDS011;4966;48.112;9.282;2024-01-30T01:05:40;20.13;;;7.93;;
9854;SDS011;4966;48.112;9.282;2024-01-30T01:08:06;14.77;;;6.32;;
9854;SDS011;4966;48.112;9.282;2024-01-30T01:10:31;16.52;;;6.90;;
9854;SDS011;4966;48.112;9.282;2024-01-30T01:12:56;17.80;;;7.32;;
9854;SDS011;4966;48.112;9.282;2024-01-30T01:15:22;19.55;;;6.57;;
9854;SDS011;4966;48.112;9.282;2024-01-30T01:17:47;14.65;;;6.10;;
9854;SDS011;4966;48.112;9.282;2024-01-30T01:20:12;15.57;;;6.68;;
9854;SDS011;4966;48.112;9.282;2024-01-30T01:22:38;15.80;;;6.28;;
9854;SDS011;4966;48.112;9.282;2024-01-30T01:25:04;16.95;;;7.13;;
9854;SDS011;4966;48.112;9.282;2024-01-30T01:27:32;16.35;;;6.82;;
9854;SDS011;4966;48.112;9.282;2024-01-30T01:29:59;18.25;;;7.63;;
9854;SDS011;4966;48.112;9.282;2024-01-30T01:32:24;17.95;;;6.38;;
9854;SDS011;4966;48.112;9.282;2024-01-30T01:34:50;14.82;;;6.40;;
9854;SDS011;4966;48.112;9.282;2024-01-30T01:37:15;15.10;;;6.47;;
9854;SDS011;4966;48.112;9.282;2024-01-30T01:39:40;16.23;;;6.25;;
9854;SDS011;4966;48.112;9.282;2024-01-30T01:42:06;16.35;;;6.75;;
9854;SDS011;4966;48.112;9.282;2024-01-30T01:44:31;13.38;;;6.10;;
9854;SDS011;4966;48.112;9.282;2024-01-30T01:46:57;12.93;;;5.97;;
9854;SDS011;4966;48.112;9.282;2024-01-30T01:49:24;13.80;;;6.05;;
9854;SDS011;4966;48.112;9.282;2024-01-30T01:51:50;15.13;;;6.20;;
9854;SDS011;4966;48.112;9.282;2024-01-30T01:54:17;15.32;;;6.55;;
9854;SDS011;4966;48.112;9.282;2024-01-30T01:56:43;16.38;;;6.95;;
9854;SDS011;4966;48.112;9.282;2024-01-30T01:59:09;13.98;;;6.55;;
9854;SDS011;4966;48.112;9.282;2024-01-30T02:01:37;17.88;;;6.13;;
9854;SDS011;4966;48.112;9.282;2024-01-30T02:04:06;15.00;;;6.45;;
9854;SDS011;4966;48.112;9.282;2024-01-30T02:06:32;15.77;;;5.78;;
9854;SDS011;4966;48.112;9.282;2024-01-30T02:08:58;16.10;;;5.88;;
9854;SDS011;4966;48.112;9.282;2024-01-30T02:11:23;14.15;;;5.68;;
9854;SDS011;4966;48.112;9.282;2024-01-30T02:13:49;17.15;;;6.63;;
9854;SDS011;4966;48.112;9.282;2024-01-30T02:16:15;16.30;;;6.03;;
9854;SDS011;4966;48.112;9.282;2024-01-30T02:18:42;16.63;;;6.53;;
9854;SDS011;4966;48.112;9.282;2024-01-30T02:21:10;16.92;;;6.07;;
9854;SDS011;4966;48.112;9.282;2024-01-30T02:23:36;15.98;;;7.15;;
9854;SDS011;4966;48.112;9.282;2024-01-30T02:26:02;15.00;;;5.97;;
9854;SDS011;4966;48.112;9.282;2024-01-30T02:28:28;15.10;;;6.40;;
9854;SDS011;4966;48.112;9.282;2024-01-30T02:30:53;14.88;;;6.07;;
9854;SDS011;4966;48.112;9.282;2024-01-30T02:33:18;13.32;;;6.03;;
9854;SDS011;4966;48.112;9.282;2024-01-30T02:35:44;13.50;;;5.57;;
9854;SDS011;4966;48.112;9.282;2024-01-30T02:38:10;16.33;;;6.40;;
9854;SDS011;4966;48.112;9.282;2024-01-30T02:40:35;16.75;;;6.13;;
9854;SDS011;4966;48.112;9.282;2024-01-30T02:43:01;14.75;;;5.85;;
9854;SDS011;4966;48.112;9.282;2024-01-30T02:45:27;15.25;;;5.97;;
9854;SDS011;4966;48.112;9.282;2024-01-30T02:47:52;15.48;;;5.78;;
9854;SDS011;4966;48.112;9.282;2024-01-30T02:50:18;12.48;;;5.72;;
9854;SDS011;4966;48.112;9.282;2024-01-30T02:52:43;13.73;;;6.30;;
9854;SDS011;4966;48.112;9.282;2024-01-30T02:55:09;13.88;;;6.13;;
9854;SDS011;4966;48.112;9.282;2024-01-30T02:57:34;15.55;;;6.07;;
9854;SDS011;4966;48.112;9.282;2024-01-30T03:00:00;13.05;;;5.80;;
9854;SDS011;4966;48.112;9.282;2024-01-30T03:02:25;14.02;;;6.20;;
9854;SDS011;4966;48.112;9.282;2024-01-30T03:04:50;14.05;;;5.63;;
9854;SDS011;4966;48.112;9.282;2024-01-30T03:07:16;10.90;;;4.75;;
9854;SDS011;4966;48.112;9.282;2024-01-30T03:09:41;13.43;;;5.38;;
9854;SDS011;4966;48.112;9.282;2024-01-30T03:12:09;10.07;;;4.85;;
9854;SDS011;4966;48.112;9.282;2024-01-30T03:14:35;11.93;;;5.13;;
9854;SDS011;4966;48.112;9.282;2024-01-30T03:17:00;17.65;;;5.80;;
9854;SDS011;4966;48.112;9.282;2024-01-30T03:19:26;11.40;;;4.93;;
9854;SDS011;4966;48.112;9.282;2024-01-30T03:21:51;15.75;;;5.38;;
9854;SDS011;4966;48.112;9.282;2024-01-30T03:24:16;15.55;;;4.97;;
9854;SDS011;4966;48.112;9.282;2024-01-30T03:26:42;13.77;;;5.80;;
9854;SDS011;4966;48.112;9.282;2024-01-30T03:29:08;12.73;;;5.57;;
9854;SDS011;4966;48.112;9.282;2024-01-30T03:31:33;13.25;;;5.22;;
9854;SDS011;4966;48.112;9.282;2024-01-30T03:33:59;11.82;;;5.75;;
9854;SDS011;4966;48.112;9.282;2024-01-30T03:36:24;13.60;;;4.90;;
9854;SDS011;4966;48.112;9.282;2024-01-30T03:38:49;11.43;;;4.85;;
9854;SDS011;4966;48.112;9.282;2024-01-30T03:41:15;14.73;;;5.32;;
9854;SDS011;4966;48.112;9.282;2024-01-30T03:43:40;13.70;;;5.15;;
9854;SDS011;4966;48.112;9.282;2024-01-30T03:46:06;14.20;;;5.57;;
9854;SDS011;4966;48.112;9.282;2024-01-30T03:48:31;12.90;;;5.20;;
9854;SDS011;4966;48.112;9.282;2024-01-30T03:50:56;12.52;;;5.60;;
9854;SDS011;4966;48.112;9.282;2024-01-30T03:53:22;13.65;;;5.32;;
9854;SDS011;4966;48.112;9.282;2024-01-30T03:55:47;10.57;;;4.25;;
9854;SDS011;4966;48.112;9.282;2024-01-30T03:58:12;13.32;;;5.15;;
9854;SDS011;4966;48.112;9.282;2024-01-30T04:00:38;12.27;;;4.68;;
9854;SDS011;4966;48.112;9.282;2024-01-30T04:03:03;13.00;;;4.68;;
9854;SDS011;4966;48.112;9.282;2024-01-30T04:05:28;10.73;;;5.10;;
9854;SDS011;4966;48.112;9.282;2024-01-30T04:07:54;10.90;;;4.72;;
9854;SDS011;4966;48.112;9.282;2024-01-30T04:10:19;10.45;;;4.80;;
9854;SDS011;4966;48.112;9.282;2024-01-30T04:12:44;9.13;;;3.97;;
9854;SDS011;4966;48.112;9.282;2024-01-30T04:15:10;10.07;;;4.65;;
9854;SDS011;4966;48.112;9.282;2024-01-30T04:17:35;11.30;;;4.55;;
9854;SDS011;4966;48.112;9.282;2024-01-30T04:20:01;11.13;;;4.75;;
9854;SDS011;4966;48.112;9.282;2024-01-30T04:22:26;13.20;;;5.05;;
9854;SDS011;4966;48.112;9.282;2024-01-30T04:24:51;11.38;;;5.07;;
9854;SDS011;4966;48.112;9.282;2024-01-30T04:27:17;11.90;;;4.95;;
9854;SDS011;4966;48.112;9.282;2024-01-30T04:29:42;9.68;;;4.25;;
9854;SDS011;4966;48.112;9.282;2024-01-30T04:32:07;11.88;;;5.15;;
9854;SDS011;4966;48.112;9.282;2024-01-30T04:34:34;12.95;;;5.60;;
9854;SDS011;4966;48.112;9.282;2024-01-30T04:37:01;11.90;;;5.22;;
9854;SDS011;4966;48.112;9.282;2024-01-30T04:39:26;13.35;;;5.47;;
9854;SDS011;4966;48.112;9.282;2024-01-30T04:41:52;11.27;;;4.63;;
9854;SDS011;4966;48.112;9.282;2024-01-30T04:44:17;14.40;;;4.80;;
9854;SDS011;4966;48.112;9.282;2024-01-30T04:46:42;12.07;;;5.30;;
9854;SDS011;4966;48.112;9.282;2024-01-30T04:49:08;12.93;;;5.45;;
9854;SDS011;4966;48.112;9.282;2024-01-30T04:51:33;14.25;;;6.30;;
9854;SDS011;4966;48.112;9.282;2024-01-30T04:53:58;10.95;;;5.22;;
9854;SDS011;4966;48.112;9.282;2024-01-30T04:56:24;11.98;;;5.72;;
9854;SDS011;4966;48.112;9.282;2024-01-30T04:58:49;14.60;;;6.15;;
9854;SDS011;4966;48.112;9.282;2024-01-30T05:01:18;12.63;;;5.20;;
9854;SDS011;4966;48.112;9.282;2024-01-30T05:03:43;11.50;;;5.25;;
9854;SDS011;4966;48.112;9.282;2024-01-30T05:06:09;12.93;;;5.75;;
9854;SDS011;4966;48.112;9.282;2024-01-30T05:08:34;12.23;;;5.82;;
9854;SDS011;4966;48.112;9.282;2024-01-30T05:11:03;12.23;;;5.40;;
9854;SDS011;4966;48.112;9.282;2024-01-30T05:13:30;23.52;;;9.15;;
9854;SDS011;4966;48.112;9.282;2024-01-30T05:15:56;21.42;;;8.48;;
9854;SDS011;4966;48.112;9.282;2024-01-30T05:18:21;21.65;;;7.63;;
9854;SDS011;4966;48.112;9.282;2024-01-30T05:20:46;17.02;;;6.82;;
9854;SDS011;4966;48.112;9.282;2024-01-30T05:23:12;15.88;;;5.57;;
9854;SDS011;4966;48.112;9.282;2024-01-30T05:25:37;17.83;;;5.72;;
9854;SDS011;4966;48.112;9.282;2024-01-30T05:28:02;14.65;;;6.90;;
9854;SDS011;4966;48.112;9.282;2024-01-30T05:30:28;12.13;;;5.75;;
9854;SDS011;4966;48.112;9.282;2024-01-30T05:32:53;13.52;;;6.13;;
9854;SDS011;4966;48.112;9.282;2024-01-30T05:35:19;12.52;;;5.32;;
9854;SDS011;4966;48.112;9.282;2024-01-30T05:37:46;11.88;;;4.72;;
9854;SDS011;4966;48.112;9.282;2024-01-30T05:40:12;13.23;;;5.28;;
9854;SDS011;4966;48.112;9.282;2024-01-30T05:42:38;10.52;;;5.03;;
9854;SDS011;4966;48.112;9.282;2024-01-30T05:45:03;18.05;;;6.30;;
9854;SDS011;4966;48.112;9.282;2024-01-30T05:47:30;16.33;;;6.15;;
9854;SDS011;4966;48.112;9.282;2024-01-30T05:49:55;12.93;;;4.93;;
9854;SDS011;4966;48.112;9.282;2024-01-30T05:52:21;13.60;;;5.20;;
9854;SDS011;4966;48.112;9.282;2024-01-30T05:54:46;18.70;;;5.32;;
9854;SDS011;4966;48.112;9.282;2024-01-30T05:57:11;11.80;;;5.22;;
9854;SDS011;4966;48.112;9.282;2024-01-30T05:59:37;15.20;;;4.70;;
9854;SDS011;4966;48.112;9.282;2024-01-30T06:02:02;18.73;;;6.82;;
9854;SDS011;4966;48.112;9.282;2024-01-30T06:04:28;21.58;;;8.90;;
9854;SDS011;4966;48.112;9.282;2024-01-30T06:06:53;20.05;;;7.57;;
9854;SDS011;4966;48.112;9.282;2024-01-30T06:09:18;15.85;;;6.85;;
9854;SDS011;4966;48.112;9.282;2024-01-30T06:11:43;14.77;;;6.07;;
9854;SDS011;4966;48.112;9.282;2024-01-30T06:14:09;9.95;;;4.65;;
9854;SDS011;4966;48.112;9.282;2024-01-30T06:16:35;13.18;;;5.47;;
9854;SDS011;4966;48.112;9.282;2024-01-30T06:19:00;10.98;;;6.07;;
9854;SDS011;4966;48.112;9.282;2024-01-30T06:21:25;13.45;;;6.65;;
9854;SDS011;4966;48.112;9.282;2024-01-30T06:23:51;16.77;;;6.63;;
9854;SDS011;4966;48.112;9.282;2024-01-30T06:26:16;12.85;;;5.90;;
9854;SDS011;4966;48.112;9.282;2024-01-30T06:28:41;13.90;;;6.03;;
9854;SDS011;4966;48.112;9.282;2024-01-30T06:31:06;10.20;;;4.95;;
9854;SDS011;4966;48.112;9.282;2024-01-30T06:33:32;11.43;;;4.85;;
9854;SDS011;4966;48.112;9.282;2024-01-30T06:35:57;11.40;;;5.47;;
9854;SDS011;4966;48.112;9.282;2024-01-30T06:38:22;11.45;;;4.97;;
9854;SDS011;4966;48.112;9.282;2024-01-30T06:40:48;12.70;;;4.93;;
9854;SDS011;4966;48.112;9.282;2024-01-30T06:43:13;16.35;;;7.00;;
9854;SDS011;4966;48.112;9.282;2024-01-30T06:45:38;14.63;;;6.78;;
9854;SDS011;4966;48.112;9.282;2024-01-30T06:48:04;18.17;;;7.15;;
9854;SDS011;4966;48.112;9.282;2024-01-30T06:50:29;14.80;;;6.38;;
9854;SDS011;4966;48.112;9.282;2024-01-30T06:52:54;12.10;;;5.40;;
9854;SDS011;4966;48.112;9.282;2024-01-30T06:55:20;13.73;;;5.85;;
9854;SDS011;4966;48.112;9.282;2024-01-30T06:57:45;21.40;;;8.48;;
9854;SDS011;4966;48.112;9.282;2024-01-30T07:00:10;21.25;;;8.23;;
9854;SDS011;4966;48.112;9.282;2024-01-30T07:02:36;21.38;;;8.15;;
9854;SDS011;4966;48.112;9.282;2024-01-30T07:05:03;18.48;;;7.47;;
9854;SDS011;4966;48.112;9.282;2024-01-30T07:07:28;21.92;;;9.70;;
9854;SDS011;4966;48.112;9.282;2024-01-30T07:09:54;18.52;;;5.70;;
9854;SDS011;4966;48.112;9.282;2024-01-30T07:12:22;14.20;;;6.50;;
9854;SDS011;4966;48.112;9.282;2024-01-30T07:14:49;18.17;;;6.65;;
9854;SDS011;4966;48.112;9.282;2024-01-30T07:17:15;13.02;;;5.63;;
9854;SDS011;4966;48.112;9.282;2024-01-30T07:19:40;18.85;;;7.28;;
9854;SDS011;4966;48.112;9.282;2024-01-30T07:22:05;21.52;;;7.47;;
9854;SDS011;4966;48.112;9.282;2024-01-30T07:24:31;15.98;;;7.05;;
9854;SDS011;4966;48.112;9.282;2024-01-30T07:26:56;20.52;;;7.68;;
9854;SDS011;4966;48.112;9.282;2024-01-30T07:29:22;19.65;;;7.63;;
9854;SDS011;4966;48.112;9.282;2024-01-30T07:31:47;17.40;;;6.55;;
9854;SDS011;4966;48.112;9.282;2024-01-30T07:34:12;12.25;;;5.80;;
9854;SDS011;4966;48.112;9.282;2024-01-30T07:36:38;12.90;;;5.28;;
9854;SDS011;4966;48.112;9.282;2024-01-30T07:39:03;15.52;;;5.50;;
9854;SDS011;4966;48.112;9.282;2024-01-30T07:41:28;14.35;;;5.55;;
9854;SDS011;4966;48.112;9.282;2024-01-30T07:43:54;12.32;;;6.55;;
9854;SDS011;4966;48.112;9.282;2024-01-30T07:46:19;14.73;;;5.70;;
9854;SDS011;4966;48.112;9.282;2024-01-30T07:48:44;12.52;;;5.22;;
9854;SDS011;4966;48.112;9.282;2024-01-30T07:51:09;12.82;;;5.68;;
9854;SDS011;4966;48.112;9.282;2024-01-30T07:53:35;11.50;;;4.72;;
9854;SDS011;4966;48.112;9.282;2024-01-30T07:56:00;15.10;;;5.97;;
9854;SDS011;4966;48.112;9.282;2024-01-30T07:58:25;15.30;;;6.38;;
9854;SDS011;4966;48.112;9.282;2024-01-30T08:00:52;18.23;;;7.68;;
9854;SDS011;4966;48.112;9.282;2024-01-30T08:03:18;29.77;;;10.63;;
9854;SDS011;4966;48.112;9.282;2024-01-30T08:05:43;28.45;;;13.75;;
9854;SDS011;4966;48.112;9.282;2024-01-30T08:08:09;31.67;;;11.82;;
9854;SDS011;4966;48.112;9.282;2024-01-30T08:10:34;23.17;;;11.23;;
9854;SDS011;4966;48.112;9.282;2024-01-30T08:12:59;26.08;;;11.23;;
9854;SDS011;4966;48.112;9.282;2024-01-30T08:15:25;28.30;;;10.48;;
9854;SDS011;4966;48.112;9.282;2024-01-30T08:17:50;20.52;;;9.68;;
9854;SDS011;4966;48.112;9.282;2024-01-30T08:20:20;19.75;;;9.27;;
9854;SDS011;4966;48.112;9.282;2024-01-30T08:22:46;20.65;;;8.95;;
9854;SDS011;4966;48.112;9.282;2024-01-30T08:25:11;19.33;;;9.90;;
9854;SDS011;4966;48.112;9.282;2024-01-30T08:27:36;18.70;;;8.52;;
9854;SDS011;4966;48.112;9.282;2024-01-30T08:30:03;17.70;;;7.65;;
9854;SDS011;4966;48.112;9.282;2024-01-30T08:32:31;20.80;;;9.30;;
9854;SDS011;4966;48.112;9.282;2024-01-30T08:34:56;23.88;;;9.75;;
9854;SDS011;4966;48.112;9.282;2024-01-30T08:37:21;18.95;;;9.30;;
9854;SDS011;4966;48.112;9.282;2024-01-30T08:39:47;22.33;;;10.23;;
9854;SDS011;4966;48.112;9.282;2024-01-30T08:42:12;24.70;;;8.75;;
9854;SDS011;4966;48.112;9.282;2024-01-30T08:44:37;19.40;;;8.25;;
9854;SDS011;4966;48.112;9.282;2024-01-30T08:47:03;17.23;;;8.80;;
9854;SDS011;4966;48.112;9.282;2024-01-30T08:49:29;32.25;;;15.43;;
9854;SDS011;4966;48.112;9.282;2024-01-30T08:51:54;36.88;;;17.05;;
9854;SDS011;4966;48.112;9.282;2024-01-30T08:54:19;22.90;;;10.98;;
9854;SDS011;4966;48.112;9.282;2024-01-30T08:56:45;14.95;;;7.07;;
9854;SDS011;4966;48.112;9.282;2024-01-30T08:59:10;14.40;;;6.60;;
9854;SDS011;4966;48.112;9.282;2024-01-30T09:01:36;12.35;;;6.28;;
9854;SDS011;4966;48.112;9.282;2024-01-30T09:04:01;14.45;;;6.68;;
9854;SDS011;4966;48.112;9.282;2024-01-30T09:06:26;11.98;;;6.07;;
9854;SDS011;4966;48.112;9.282;2024-01-30T09:08:53;16.00;;;7.07;;
9854;SDS011;4966;48.112;9.282;2024-01-30T09:11:19;20.70;;;8.00;;
9854;SDS011;4966;48.112;9.282;2024-01-30T09:13:44;17.48;;;8.70;;
9854;SDS011;4966;48.112;9.282;2024-01-30T09:16:09;21.25;;;8.75;;
9854;SDS011;4966;48.112;9.282;2024-01-30T09:18:34;20.67;;;9.90;;
9854;SDS011;4966;48.112;9.282;2024-01-30T09:21:00;26.98;;;14.85;;
9854;SDS011;4966;48.112;9.282;2024-01-30T09:23:26;23.52;;;12.40;;
9854;SDS011;4966;48.112;9.282;2024-01-30T09:25:52;21.27;;;10.65;;
9854;SDS011;4966;48.112;9.282;2024-01-30T09:28:18;21.38;;;10.05;;
9854;SDS011;4966;48.112;9.282;2024-01-30T09:30:44;25.63;;;11.98;;
9854;SDS011;4966;48.112;9.282;2024-01-30T09:33:09;26.70;;;12.18;;
9854;SDS011;4966;48.112;9.282;2024-01-30T09:35:34;30.58;;;12.57;;
9854;SDS011;4966;48.112;9.282;2024-01-30T09:38:01;26.10;;;12.15;;
9854;SDS011;4966;48.112;9.282;2024-01-30T09:40:26;29.80;;;12.00;;
9854;SDS011;4966;48.112;9.282;2024-01-30T09:42:52;24.60;;;11.75;;
9854;SDS011;4966;48.112;9.282;2024-01-30T09:45:19;24.92;;;11.40;;
9854;SDS011;4966;48.112;9.282;2024-01-30T09:47:45;25.58;;;12.30;;
9854;SDS011;4966;48.112;9.282;2024-01-30T09:50:11;26.85;;;11.50;;
9854;SDS011;4966;48.112;9.282;2024-01-30T09:52:38;26.02;;;12.02;;
9854;SDS011;4966;48.112;9.282;2024-01-30T09:55:04;26.23;;;12.45;;
9854;SDS011;4966;48.112;9.282;2024-01-30T09:57:31;32.35;;;13.45;;
9854;SDS011;4966;48.112;9.282;2024-01-30T09:59:56;27.58;;;12.93;;
9854;SDS011;4966;48.112;9.282;2024-01-30T10:02:22;28.10;;;12.98;;
9854;SDS011;4966;48.112;9.282;2024-01-30T10:04:51;30.95;;;13.70;;
9854;SDS011;4966;48.112;9.282;2024-01-30T10:07:17;26.67;;;13.23;;
9854;SDS011;4966;48.112;9.282;2024-01-30T10:09:43;25.98;;;11.38;;
9854;SDS011;4966;48.112;9.282;2024-01-30T10:12:09;26.80;;;11.80;;
9854;SDS011;4966;48.112;9.282;2024-01-30T10:14:38;27.55;;;11.95;;
9854;SDS011;4966;48.112;9.282;2024-01-30T10:17:04;28.23;;;14.48;;
9854;SDS011;4966;48.112;9.282;2024-01-30T10:19:30;26.27;;;11.02;;
9854;SDS011;4966;48.112;9.282;2024-01-30T10:21:56;24.60;;;11.93;;
9854;SDS011;4966;48.112;9.282;2024-01-30T10:24:25;28.95;;;14.25;;
9854;SDS011;4966;48.112;9.282;2024-01-30T10:26:51;29.75;;;12.48;;
9854;SDS011;4966;48.112;9.282;2024-01-30T10:29:18;31.92;;;13.82;;
9854;SDS011;4966;48.112;9.282;2024-01-30T10:31:43;30.00;;;14.45;;
9854;SDS011;4966;48.112;9.282;2024-01-30T10:34:08;27.95;;;12.45;;
9854;SDS011;4966;48.112;9.282;2024-01-30T10:36:36;24.38;;;11.95;;
9854;SDS011;4966;48.112;9.282;2024-01-30T10:39:08;27.52;;;12.15;;
9854;SDS011;4966;48.112;9.282;2024-01-30T10:41:34;26.08;;;11.48;;
9854;SDS011;4966;48.112;9.282;2024-01-30T10:44:10;23.33;;;11.73;;
9854;SDS011;4966;48.112;9.282;2024-01-30T10:46:37;27.05;;;12.73;;
9854;SDS011;4966;48.112;9.282;2024-01-30T10:49:03;26.73;;;12.73;;
9854;SDS011;4966;48.112;9.282;2024-01-30T10:51:30;21.05;;;10.93;;
9854;SDS011;4966;48.112;9.282;2024-01-30T10:53:57;24.25;;;11.65;;
9854;SDS011;4966;48.112;9.282;2024-01-30T10:56:23;21.70;;;10.55;;
9854;SDS011;4966;48.112;9.282;2024-01-30T10:58:52;22.40;;;10.18;;
9854;SDS011;4966;48.112;9.282;2024-01-30T11:03:47;24.20;;;11.02;;
9854;SDS011;4966;48.112;9.282;2024-01-30T11:06:14;21.92;;;10.27;;
9854;SDS011;4966;48.112;9.282;2024-01-30T11:08:43;24.65;;;11.43;;
9854;SDS011;4966;48.112;9.282;2024-01-30T11:11:09;20.33;;;10.82;;
9854;SDS011;4966;48.112;9.282;2024-01-30T11:13:35;23.02;;;11.38;;
9854;SDS011;4966;48.112;9.282;2024-01-30T11:16:01;22.13;;;11.40;;
9854;SDS011;4966;48.112;9.282;2024-01-30T11:18:30;20.27;;;10.32;;
9854;SDS011;4966;48.112;9.282;2024-01-30T11:20:57;22.77;;;10.90;;
9854;SDS011;4966;48.112;9.282;2024-01-30T11:23:25;21.27;;;10.27;;
9854;SDS011;4966;48.112;9.282;2024-01-30T11:25:55;24.45;;;10.63;;
9854;SDS011;4966;48.112;9.282;2024-01-30T11:28:21;19.42;;;10.05;;
9854;SDS011;4966;48.112;9.282;2024-01-30T11:30:47;20.25;;;10.38;;
9854;SDS011;4966;48.112;9.282;2024-01-30T11:33:15;20.45;;;10.52;;
9854;SDS011;4966;48.112;9.282;2024-01-30T11:35:54;18.60;;;9.23;;
9854;SDS011;4966;48.112;9.282;2024-01-30T11:38:22;21.83;;;9.98;;
9854;SDS011;4966;48.112;9.282;2024-01-30T11:40:50;20.42;;;10.75;;
9854;SDS011;4966;48.112;9.282;2024-01-30T11:43:16;22.10;;;10.88;;
9854;SDS011;4966;48.112;9.282;2024-01-30T11:45:42;22.38;;;10.90;;
9854;SDS011;4966;48.112;9.282;2024-01-30T11:48:09;21.38;;;9.88;;
9854;SDS011;4966;48.112;9.282;2024-01-30T11:50:37;20.40;;;11.18;;
9854;SDS011;4966;48.112;9.282;2024-01-30T11:53:03;22.02;;;10.15;;
9854;SDS011;4966;48.112;9.282;2024-01-30T11:55:29;24.85;;;11.40;;
9854;SDS011;4966;48.112;9.282;2024-01-30T11:57:56;25.27;;;12.82;;
9854;SDS011;4966;48.112;9.282;2024-01-30T12:00:21;22.42;;;11.30;;
9854;SDS011;4966;48.112;9.282;2024-01-30T12:02:50;21.77;;;10.85;;
9854;SDS011;4966;48.112;9.282;2024-01-30T12:05:18;23.38;;;11.10;;
9854;SDS011;4966;48.112;9.282;2024-01-30T12:07:45;21.70;;;9.90;;
9854;SDS011;4966;48.112;9.282;2024-01-30T12:10:12;20.30;;;9.27;;
9854;SDS011;4966;48.112;9.282;2024-01-30T12:12:39;20.95;;;10.27;;
9854;SDS011;4966;48.112;9.282;2024-01-30T12:15:05;19.55;;;9.32;;
9854;SDS011;4966;48.112;9.282;2024-01-30T12:17:32;17.90;;;9.02;;
9854;SDS011;4966;48.112;9.282;2024-01-30T12:22:31;22.77;;;8.90;;
9854;SDS011;4966;48.112;9.282;2024-01-30T12:24:58;13.75;;;8.07;;
9854;SDS011;4966;48.112;9.282;2024-01-30T12:27:23;14.93;;;7.15;;
9854;SDS011;4966;48.112;9.282;2024-01-30T12:29:55;16.50;;;8.50;;
9854;SDS011;4966;48.112;9.282;2024-01-30T12:32:22;17.23;;;8.02;;
9854;SDS011;4966;48.112;9.282;2024-01-30T12:34:48;16.08;;;8.15;;
9854;SDS011;4966;48.112;9.282;2024-01-30T12:37:13;16.92;;;7.93;;
9854;SDS011;4966;48.112;9.282;2024-01-30T12:39:38;16.88;;;9.02;;
9854;SDS011;4966;48.112;9.282;2024-01-30T12:42:04;17.95;;;9.20;;
9854;SDS011;4966;48.112;9.282;2024-01-30T12:44:29;18.80;;;8.80;;
9854;SDS011;4966;48.112;9.282;2024-01-30T12:46:55;16.30;;;7.93;;
9854;SDS011;4966;48.112;9.282;2024-01-30T12:49:20;17.55;;;8.35;;
9854;SDS011;4966;48.112;9.282;2024-01-30T12:51:46;17.83;;;8.25;;
9854;SDS011;4966;48.112;9.282;2024-01-30T12:54:12;13.60;;;8.13;;
9854;SDS011;4966;48.112;9.282;2024-01-30T12:56:38;15.68;;;8.32;;
9854;SDS011;4966;48.112;9.282;2024-01-30T12:59:03;15.65;;;8.00;;
9854;SDS011;4966;48.112;9.282;2024-01-30T13:01:28;16.10;;;7.97;;
9854;SDS011;4966;48.112;9.282;2024-01-30T13:03:54;13.75;;;7.70;;
9854;SDS011;4966;48.112;9.282;2024-01-30T13:06:22;14.07;;;7.22;;
9854;SDS011;4966;48.112;9.282;2024-01-30T13:08:47;13.70;;;7.32;;
9854;SDS011;4966;48.112;9.282;2024-01-30T13:11:12;17.45;;;7.63;;
9854;SDS011;4966;48.112;9.282;2024-01-30T13:13:38;14.32;;;7.63;;
9854;SDS011;4966;48.112;9.282;2024-01-30T13:16:03;16.38;;;8.15;;
9854;SDS011;4966;48.112;9.282;2024-01-30T13:18:29;16.10;;;7.28;;
9854;SDS011;4966;48.112;9.282;2024-01-30T13:20:54;15.60;;;6.57;;
9854;SDS011;4966;48.112;9.282;2024-01-30T13:23:19;16.45;;;6.97;;
9854;SDS011;4966;48.112;9.282;2024-01-30T13:25:45;10.73;;;5.53;;
9854;SDS011;4966;48.112;9.282;2024-01-30T13:28:10;10.98;;;5.50;;
9854;SDS011;4966;48.112;9.282;2024-01-30T13:30:35;13.65;;;7.25;;
9854;SDS011;4966;48.112;9.282;2024-01-30T13:33:01;11.13;;;6.43;;
9854;SDS011;4966;48.112;9.282;2024-01-30T13:35:28;11.85;;;5.75;;
9854;SDS011;4966;48.112;9.282;2024-01-30T13:37:53;12.32;;;5.43;;
9854;SDS011;4966;48.112;9.282;2024-01-30T13:40:18;14.40;;;5.95;;
9854;SDS011;4966;48.112;9.282;2024-01-30T13:42:44;13.77;;;6.78;;
9854;SDS011;4966;48.112;9.282;2024-01-30T13:45:09;13.40;;;5.85;;
9854;SDS011;4966;48.112;9.282;2024-01-30T13:47:35;11.80;;;5.80;;
9854;SDS011;4966;48.112;9.282;2024-01-30T13:50:00;11.68;;;5.63;;
9854;SDS011;4966;48.112;9.282;2024-01-30T13:52:25;11.23;;;5.20;;
9854;SDS011;4966;48.112;9.282;2024-01-30T13:54:52;11.68;;;5.40;;
9854;SDS011;4966;48.112;9.282;2024-01-30T13:57:17;12.88;;;5.65;;
9854;SDS011;4966;48.112;9.282;2024-01-30T13:59:42;10.77;;;4.85;;
9854;SDS011;4966;48.112;9.282;2024-01-30T14:02:08;16.13;;;5.53;;
9854;SDS011;4966;48.112;9.282;2024-01-30T14:04:35;13.90;;;5.50;;
9854;SDS011;4966;48.112;9.282;2024-01-30T14:07:02;13.57;;;6.15;;
9854;SDS011;4966;48.112;9.282;2024-01-30T14:09:27;10.52;;;5.70;;
9854;SDS011;4966;48.112;9.282;2024-01-30T14:11:53;13.65;;;5.97;;
9854;SDS011;4966;48.112;9.282;2024-01-30T14:14:19;12.70;;;5.90;;
9854;SDS011;4966;48.112;9.282;2024-01-30T14:16:44;11.60;;;6.07;;
9854;SDS011;4966;48.112;9.282;2024-01-30T14:19:10;15.43;;;7.20;;
9854;SDS011;4966;48.112;9.282;2024-01-30T14:21:35;14.82;;;7.60;;
9854;SDS011;4966;48.112;9.282;2024-01-30T14:24:02;16.80;;;7.93;;
9854;SDS011;4966;48.112;9.282;2024-01-30T14:26:27;12.77;;;5.30;;
9854;SDS011;4966;48.112;9.282;2024-01-30T14:28:53;13.50;;;7.03;;
9854;SDS011;4966;48.112;9.282;2024-01-30T14:31:20;13.10;;;6.28;;
9854;SDS011;4966;48.112;9.282;2024-01-30T14:33:46;15.70;;;6.40;;
9854;SDS011;4966;48.112;9.282;2024-01-30T14:36:12;15.73;;;7.00;;
9854;SDS011;4966;48.112;9.282;2024-01-30T14:38:38;11.95;;;6.07;;
9854;SDS011;4966;48.112;9.282;2024-01-30T14:41:04;15.23;;;7.03;;
9854;SDS011;4966;48.112;9.282;2024-01-30T14:43:30;16.58;;;7.55;;
9854;SDS011;4966;48.112;9.282;2024-01-30T14:45:56;18.02;;;8.50;;
9854;SDS011;4966;48.112;9.282;2024-01-30T14:48:21;16.27;;;8.15;;
9854;SDS011;4966;48.112;9.282;2024-01-30T14:50:47;15.80;;;7.55;;
9854;SDS011;4966;48.112;9.282;2024-01-30T14:53:12;16.70;;;8.20;;